Time,TemperatureF,DewpointF,PressureIn,WindDirection,WindDirectionDegrees,WindSpeedMPH,WindSpeedGustMPH,Humidity,HourlyPrecipIn,Conditions,Clouds,dailyrainin,SolarRadiationWatts/m^2,SoftwareType,DateUTC
2013-05-23 00:00:00,47.6,45.7,29.90,North,0,0.0,0.0,93,0.00,00:00,,0.00,0.0,WeatherDisplay:WD co,2013-05-22 22:00:00,
2013-05-23 00:05:00,47.6,45.7,29.90,North,0,0.0,0.0,93,0.00,00:05,,0.00,0.0,WeatherDisplay:WD co,2013-05-22 22:05:00,
2013-05-23 00:10:00,47.5,45.6,29.90,North,0,0.0,0.0,93,0.00,00:10,,0.00,0.0,WeatherDisplay:WD co,2013-05-22 22:10:00,
2013-05-23 00:15:00,47.5,45.6,29.90,North,0,0.0,0.0,93,0.00,00:15,,0.00,0.0,WeatherDisplay:WD co,2013-05-22 22:15:00,
2013-05-23 00:20:00,47.4,45.5,29.89,North,0,0.0,0.0,93,0.00,00:20,,0.00,0.0,WeatherDisplay:WD co,2013-05-22 22:20:00,
2013-05-23 00:25:00,47.3,45.4,29.89,North,0,0.0,0.0,93,0.00,00:25,,0.00,0.0,WeatherDisplay:WD co,2013-05-22 22:25:00,
2013-05-23 00:30:00,47.2,45.3,29.89,North,0,0.0,0.0,93,0.00,00:30,,0.00,0.0,WeatherDisplay:WD co,2013-05-22 22:30:00,
2013-05-23 00:35:00,47.1,45.2,29.88,North,0,0.0,0.0,93,0.00,00:35,,0.00,0.0,WeatherDisplay:WD co,2013-05-22 22:35:00,
2013-05-23 00:40:00,47.0,45.1,29.88,North,0,0.0,0.0,93,0.00,00:40,,0.00,0.0,WeatherDisplay:WD co,2013-05-22 22:40:00,
2013-05-23 00:45:00,46.9,45.0,29.88,North,0,0.0,0.0,93,0.00,00:45,,0.00,0.0,WeatherDisplay:WD co,2013-05-22 22:45:00,
2013-05-23 00:50:00,46.8,44.9,29.88,North,0,0.0,0.0,93,0.00,00:50,,0.00,0.0,WeatherDisplay:WD co,2013-05-22 22:50:00,
2013-05-23 00:55:00,46.7,44.8,29.88,North,0,0.0,0.0,93,0.00,00:55,,0.00,0.0,WeatherDisplay:WD co,2013-05-22 22:55:00,
2013-05-23 01:00:00,46.5,44.3,29.88,North,0,0.0,0.0,92,0.00,01:00,,0.00,0.0,WeatherDisplay:WD co,2013-05-22 23:00:00,
2013-05-23 01:05:00,46.3,44.1,29.88,North,0,0.0,0.0,92,0.00,01:05,,0.00,0.0,WeatherDisplay:WD co,2013-05-22 23:05:00,
2013-05-23 01:10:00,46.1,43.9,29.87,North,0,0.0,0.0,92,0.00,01:10,,0.00,0.0,WeatherDisplay:WD co,2013-05-22 23:10:00,
2013-05-23 01:15:00,46.0,43.8,29.87,North,0,0.0,0.0,92,0.00,01:15,,0.00,0.0,WeatherDisplay:WD co,2013-05-22 23:15:00,
2013-05-23 01:20:00,45.8,43.6,29.87,North,0,0.0,0.0,92,0.00,01:20,,0.00,0.0,WeatherDisplay:WD co,2013-05-22 23:20:00,
2013-05-23 01:25:00,45.6,43.4,29.87,North,0,0.0,0.0,92,0.00,01:25,,0.00,0.0,WeatherDisplay:WD co,2013-05-22 23:25:00,
2013-05-23 01:30:00,45.6,43.7,29.87,North,0,0.0,0.0,93,0.00,01:30,,0.00,0.0,WeatherDisplay:WD co,2013-05-22 23:30:00,
2013-05-23 01:35:00,45.5,43.6,29.87,North,0,0.0,0.0,93,0.00,01:35,,0.00,0.0,WeatherDisplay:WD co,2013-05-22 23:35:00,
2013-05-23 01:40:00,45.5,43.6,29.87,North,0,0.0,0.0,93,0.00,01:40,,0.00,0.0,WeatherDisplay:WD co,2013-05-22 23:40:00,
2013-05-23 01:45:00,45.4,43.5,29.86,North,0,0.0,0.0,93,0.00,01:45,,0.00,0.0,WeatherDisplay:WD co,2013-05-22 23:45:00,
2013-05-23 01:50:00,45.5,43.6,29.86,North,0,0.0,0.0,93,0.00,01:50,,0.00,0.0,WeatherDisplay:WD co,2013-05-22 23:50:00,
2013-05-23 01:55:00,45.6,43.7,29.86,North,0,0.0,0.0,93,0.00,01:55,,0.00,0.0,WeatherDisplay:WD co,2013-05-22 23:55:00,
2013-05-23 02:00:00,45.7,43.8,29.86,North,0,0.0,0.0,93,0.00,02:00,,0.00,0.0,WeatherDisplay:WD co,2013-05-23 00:00:00,
2013-05-23 02:05:00,45.7,44.1,29.86,North,0,0.0,0.0,94,0.00,02:05,,0.00,0.0,WeatherDisplay:WD co,2013-05-23 00:05:00,
2013-05-23 02:10:00,45.8,44.1,29.86,North,0,0.0,0.0,94,0.00,02:10,,0.00,0.0,WeatherDisplay:WD co,2013-05-23 00:10:00,
2013-05-23 02:15:00,45.8,44.2,29.86,North,0,0.0,0.0,94,0.00,02:15,,0.00,0.0,WeatherDisplay:WD co,2013-05-23 00:15:00,
2013-05-23 02:20:00,45.9,44.3,29.85,North,0,0.0,0.0,94,0.00,02:20,,0.00,0.0,WeatherDisplay:WD co,2013-05-23 00:20:00,
2013-05-23 02:25:00,46.0,44.4,29.85,North,0,0.0,0.0,94,0.00,02:25,,0.00,0.0,WeatherDisplay:WD co,2013-05-23 00:25:00,
2013-05-23 02:30:00,46.1,44.5,29.85,North,0,0.0,0.0,94,0.00,02:30,,0.00,0.0,WeatherDisplay:WD co,2013-05-23 00:30:00,
2013-05-23 02:35:00,46.0,44.1,29.84,North,0,0.0,0.0,93,0.00,02:35,,0.00,0.0,WeatherDisplay:WD co,2013-05-23 00:35:00,
2013-05-23 02:40:00,46.0,44.1,29.84,North,0,0.0,0.0,93,0.00,02:40,,0.00,0.0,WeatherDisplay:WD co,2013-05-23 00:40:00,
2013-05-23 02:45:00,46.1,44.2,29.84,North,0,0.0,0.0,93,0.00,02:45,,0.00,0.0,WeatherDisplay:WD co,2013-05-23 00:45:00,
2013-05-23 02:50:00,46.1,44.2,29.84,North,0,0.0,0.0,93,0.00,02:50,,0.00,0.0,WeatherDisplay:WD co,2013-05-23 00:50:00,
2013-05-23 02:55:00,46.2,44.0,29.83,North,0,0.0,0.0,92,0.00,02:55,,0.00,0.0,WeatherDisplay:WD co,2013-05-23 00:55:00,
2013-05-23 03:00:00,46.3,43.8,29.83,North,0,0.0,0.0,91,0.00,03:00,,0.00,0.0,WeatherDisplay:WD co,2013-05-23 01:00:00,
2013-05-23 03:05:00,46.4,43.3,29.83,North,0,0.0,0.0,89,0.01,RA,,0.01,0.0,WeatherDisplay:WD co,2013-05-23 01:05:00,
2013-05-23 03:10:00,46.4,42.1,29.83,North,0,0.0,0.0,85,0.01,RA,,0.01,0.0,WeatherDisplay:WD co,2013-05-23 01:10:00,
2013-05-23 03:20:00,46.3,38.8,29.82,North,0,0.0,0.0,75,0.00,RA,,0.01,0.0,WeatherDisplay:WD co,2013-05-23 01:20:00,
2013-05-23 03:25:00,46.2,38.4,29.82,North,0,0.0,0.0,74,0.00,RA,,0.01,0.0,WeatherDisplay:WD co,2013-05-23 01:25:00,
2013-05-23 03:30:00,46.0,37.8,29.82,North,0,0.0,0.0,73,0.00,RA,,0.01,0.0,WeatherDisplay:WD co,2013-05-23 01:30:00,
2013-05-23 03:35:00,45.7,37.6,29.82,North,0,0.0,0.0,73,0.00,RA,,0.01,0.0,WeatherDisplay:WD co,2013-05-23 01:35:00,
2013-05-23 03:40:00,45.4,37.9,29.82,North,0,0.0,0.0,75,0.00,RA,,0.01,0.0,WeatherDisplay:WD co,2013-05-23 01:40:00,
2013-05-23 03:45:00,45.0,37.9,29.82,North,0,0.0,0.0,76,0.00,RA,,0.01,0.0,WeatherDisplay:WD co,2013-05-23 01:45:00,
2013-05-23 03:50:00,44.6,38.2,29.82,North,0,0.0,0.0,78,0.00,RA,,0.01,0.0,WeatherDisplay:WD co,2013-05-23 01:50:00,
2013-05-23 03:55:00,44.2,38.1,29.82,North,0,0.0,0.0,79,0.00,RA,,0.01,0.0,WeatherDisplay:WD co,2013-05-23 01:55:00,
2013-05-23 04:00:00,44.0,38.2,29.82,North,0,0.0,0.0,80,0.00,RA,,0.01,0.0,WeatherDisplay:WD co,2013-05-23 02:00:00,
2013-05-23 04:05:00,43.9,38.1,29.81,North,0,0.0,0.0,80,0.00,04:05,,0.01,0.0,WeatherDisplay:WD co,2013-05-23 02:05:00,
2013-05-23 04:10:00,44.0,38.5,29.81,North,0,0.0,0.0,81,0.00,04:10,,0.01,0.0,WeatherDisplay:WD co,2013-05-23 02:10:00,
2013-05-23 04:15:00,44.0,38.5,29.81,North,0,0.0,0.0,81,0.00,04:15,,0.01,0.0,WeatherDisplay:WD co,2013-05-23 02:15:00,
2013-05-23 04:20:00,44.0,38.9,29.82,North,0,0.0,0.0,82,0.00,04:20,,0.01,0.0,WeatherDisplay:WD co,2013-05-23 02:20:00,
2013-05-23 04:25:00,43.9,39.1,29.81,North,0,0.0,0.0,83,0.00,04:25,,0.01,0.0,WeatherDisplay:WD co,2013-05-23 02:25:00,
2013-05-23 04:30:00,43.7,38.9,29.82,North,0,0.0,0.0,83,0.01,RA,,0.02,0.0,WeatherDisplay:WD co,2013-05-23 02:30:00,
2013-05-23 04:35:00,43.4,38.3,29.81,North,0,0.0,0.0,82,0.01,RA,,0.02,0.0,WeatherDisplay:WD co,2013-05-23 02:35:00,
2013-05-23 04:40:00,43.3,38.2,29.81,North,0,0.0,0.0,82,0.00,RA,,0.02,0.0,WeatherDisplay:WD co,2013-05-23 02:40:00,
2013-05-23 04:45:00,43.2,38.4,29.81,North,0,0.0,0.0,83,0.00,RA,,0.02,0.0,WeatherDisplay:WD co,2013-05-23 02:45:00,
2013-05-23 04:50:00,43.1,38.6,29.81,North,0,0.0,0.0,84,0.00,RA,,0.02,0.0,WeatherDisplay:WD co,2013-05-23 02:50:00,
2013-05-23 04:55:00,43.1,38.6,29.81,North,0,0.0,0.0,84,0.00,RA,,0.02,0.0,WeatherDisplay:WD co,2013-05-23 02:55:00,
2013-05-23 05:00:00,42.9,38.7,29.81,North,0,0.0,0.0,85,0.00,RA,,0.02,0.0,WeatherDisplay:WD co,2013-05-23 03:00:00,
2013-05-23 05:05:00,42.9,38.7,29.80,North,0,0.0,0.0,85,0.00,RA,,0.02,0.0,WeatherDisplay:WD co,2013-05-23 03:05:00,
2013-05-23 05:10:00,42.9,39.0,29.80,North,0,0.0,0.0,86,0.00,RA,,0.02,0.0,WeatherDisplay:WD co,2013-05-23 03:10:00,
2013-05-23 05:15:00,42.9,39.0,29.79,North,0,0.0,0.0,86,0.00,RA,,0.02,0.0,WeatherDisplay:WD co,2013-05-23 03:15:00,
2013-05-23 05:20:00,42.9,39.3,29.79,North,0,0.0,0.0,87,0.00,RA,,0.02,0.0,WeatherDisplay:WD co,2013-05-23 03:20:00,
2013-05-23 05:25:00,42.8,39.2,29.79,North,0,0.0,0.0,87,0.00,RA,,0.02,0.0,WeatherDisplay:WD co,2013-05-23 03:25:00,
2013-05-23 05:35:00,42.7,39.1,29.79,North,0,0.0,0.0,87,0.00,05:35,,0.02,0.0,WeatherDisplay:WD co,2013-05-23 03:35:00,
2013-05-23 05:40:00,42.7,39.4,29.79,North,0,0.0,0.0,88,0.00,05:40,,0.02,0.0,WeatherDisplay:WD co,2013-05-23 03:40:00,
2013-05-23 05:45:00,42.7,39.4,29.78,North,0,0.0,0.0,88,0.00,05:45,,0.02,0.0,WeatherDisplay:WD co,2013-05-23 03:45:00,
2013-05-23 05:50:00,42.7,39.4,29.78,North,0,0.0,0.0,88,0.00,05:50,,0.02,0.0,WeatherDisplay:WD co,2013-05-23 03:50:00,
2013-05-23 05:55:00,42.7,39.7,29.78,North,0,0.0,0.0,89,0.00,05:55,,0.02,5.0,WeatherDisplay:WD co,2013-05-23 03:55:00,
2013-05-23 06:00:00,42.7,39.7,29.78,North,0,0.0,0.0,89,0.00,06:00,,0.02,7.0,WeatherDisplay:WD co,2013-05-23 04:00:00,
2013-05-23 06:05:00,42.6,39.3,29.77,North,0,0.0,0.0,88,0.00,06:05,,0.02,9.0,WeatherDisplay:WD co,2013-05-23 04:05:00,
2013-05-23 06:10:00,42.5,39.2,29.77,North,0,0.0,0.0,88,0.00,06:10,,0.02,14.0,WeatherDisplay:WD co,2013-05-23 04:10:00,
2013-05-23 06:15:00,42.5,39.2,29.77,North,0,0.0,0.0,88,0.00,06:15,,0.02,12.0,WeatherDisplay:WD co,2013-05-23 04:15:00,
2013-05-23 06:20:00,42.6,39.3,29.77,North,0,0.0,0.0,88,0.00,06:20,,0.02,14.0,WeatherDisplay:WD co,2013-05-23 04:20:00,
2013-05-23 06:25:00,42.6,39.3,29.78,North,0,0.0,0.0,88,0.00,06:25,,0.02,21.0,WeatherDisplay:WD co,2013-05-23 04:25:00,
2013-05-23 06:35:00,42.6,39.3,29.78,North,0,0.0,0.0,88,0.00,06:35,,0.02,23.0,WeatherDisplay:WD co,2013-05-23 04:35:00,
2013-05-23 06:40:00,42.7,39.4,29.77,North,0,0.0,0.0,88,0.00,06:40,,0.02,30.0,WeatherDisplay:WD co,2013-05-23 04:40:00,
2013-05-23 06:45:00,42.8,39.8,29.77,North,0,0.0,0.0,89,0.00,06:45,,0.02,35.0,WeatherDisplay:WD co,2013-05-23 04:45:00,
2013-05-23 06:50:00,42.8,39.8,29.77,North,0,0.0,0.0,89,0.00,06:50,,0.02,33.0,WeatherDisplay:WD co,2013-05-23 04:50:00,
2013-05-23 06:55:00,42.8,39.5,29.77,North,0,0.0,0.0,88,0.00,06:55,,0.02,35.0,WeatherDisplay:WD co,2013-05-23 04:55:00,
2013-05-23 07:00:00,42.8,39.8,29.77,North,0,0.0,0.0,89,0.00,07:00,,0.02,33.0,WeatherDisplay:WD co,2013-05-23 05:00:00,
2013-05-23 07:05:00,42.9,39.6,29.77,North,0,0.0,0.0,88,0.00,07:05,,0.02,26.0,WeatherDisplay:WD co,2013-05-23 05:05:00,
2013-05-23 07:10:00,42.9,39.6,29.77,North,0,0.0,0.0,88,0.00,07:10,,0.02,30.0,WeatherDisplay:WD co,2013-05-23 05:10:00,
2013-05-23 07:15:00,43.0,39.7,29.77,North,0,0.0,0.0,88,0.00,07:15,,0.02,28.0,WeatherDisplay:WD co,2013-05-23 05:15:00,
2013-05-23 07:20:00,43.1,39.5,29.77,North,0,0.0,0.0,87,0.00,07:20,,0.02,28.0,WeatherDisplay:WD co,2013-05-23 05:20:00,
2013-05-23 07:25:00,43.2,39.6,29.77,North,0,0.0,0.0,87,0.00,07:25,,0.02,37.0,WeatherDisplay:WD co,2013-05-23 05:25:00,
2013-05-23 07:30:00,43.3,39.7,29.77,North,0,0.0,0.0,87,0.00,07:30,,0.02,35.0,WeatherDisplay:WD co,2013-05-23 05:30:00,
2013-05-23 07:35:00,43.4,39.5,29.77,North,0,0.0,0.0,86,0.00,07:35,,0.02,32.0,WeatherDisplay:WD co,2013-05-23 05:35:00,
2013-05-23 07:40:00,43.5,39.9,29.77,North,0,0.0,0.0,87,0.00,07:40,,0.02,37.0,WeatherDisplay:WD co,2013-05-23 05:40:00,
2013-05-23 07:45:00,43.6,39.7,29.77,North,0,0.0,0.0,86,0.00,07:45,,0.02,39.0,WeatherDisplay:WD co,2013-05-23 05:45:00,
2013-05-23 07:50:00,43.7,39.8,29.77,North,0,0.0,0.0,86,0.00,07:50,,0.02,49.0,WeatherDisplay:WD co,2013-05-23 05:50:00,
2013-05-23 07:55:00,43.8,39.9,29.77,North,0,0.0,0.0,86,0.00,07:55,,0.02,53.0,WeatherDisplay:WD co,2013-05-23 05:55:00,
2013-05-23 08:00:00,43.8,39.9,29.77,North,0,0.0,0.0,86,0.00,08:00,,0.02,42.0,WeatherDisplay:WD co,2013-05-23 06:00:00,
2013-05-23 08:05:00,43.8,39.6,29.77,North,0,0.0,0.0,85,0.01,RA,,0.02,21.0,WeatherDisplay:WD co,2013-05-23 06:05:00,
2013-05-23 08:10:00,43.5,39.0,29.77,North,0,0.0,0.0,84,0.01,RA,,0.02,21.0,WeatherDisplay:WD co,2013-05-23 06:10:00,
2013-05-23 08:15:00,42.9,38.7,29.77,North,0,0.0,0.0,85,0.02,RA,,0.04,16.0,WeatherDisplay:WD co,2013-05-23 06:15:00,
2013-05-23 08:20:00,42.4,38.2,29.77,North,0,0.0,0.0,85,0.02,RA,,0.05,21.0,WeatherDisplay:WD co,2013-05-23 06:20:00,
2013-05-23 08:25:00,42.0,38.4,29.77,North,0,0.0,0.0,87,0.02,RA,,0.06,46.0,WeatherDisplay:WD co,2013-05-23 06:25:00,
2013-05-23 08:30:00,41.9,38.3,29.76,North,0,0.0,0.0,87,0.02,RA,,0.06,70.0,WeatherDisplay:WD co,2013-05-23 06:30:00,
2013-05-23 08:35:00,41.9,38.6,29.76,North,0,0.0,0.0,88,0.01,RA,,0.06,76.0,WeatherDisplay:WD co,2013-05-23 06:35:00,
2013-05-23 08:40:00,41.9,38.6,29.76,North,0,0.0,0.0,88,0.00,RA,,0.06,109.0,WeatherDisplay:WD co,2013-05-23 06:40:00,
2013-05-23 08:45:00,42.0,39.0,29.76,North,0,0.0,0.0,89,0.00,RA,,0.06,204.0,WeatherDisplay:WD co,2013-05-23 06:45:00,
2013-05-23 08:50:00,42.3,39.3,29.76,North,0,0.0,0.0,89,0.00,RA,,0.06,151.0,WeatherDisplay:WD co,2013-05-23 06:50:00,
2013-05-23 08:55:00,42.5,39.5,29.76,North,0,0.0,0.0,89,0.00,RA,,0.06,176.0,WeatherDisplay:WD co,2013-05-23 06:55:00,
2013-05-23 09:00:00,42.8,40.1,29.76,North,0,0.0,0.0,90,0.00,RA,,0.06,181.0,WeatherDisplay:WD co,2013-05-23 07:00:00,
2013-05-23 09:05:00,43.2,40.5,29.76,North,0,0.0,0.0,90,0.00,RA,,0.06,40.0,WeatherDisplay:WD co,2013-05-23 07:05:00,
2013-05-23 09:10:00,43.3,40.6,29.76,North,0,0.0,0.0,90,0.00,RA,,0.06,44.0,WeatherDisplay:WD co,2013-05-23 07:10:00,
2013-05-23 09:15:00,43.2,40.2,29.76,North,0,0.0,0.0,89,0.00,RA,,0.06,56.0,WeatherDisplay:WD co,2013-05-23 07:15:00,
2013-05-23 09:20:00,43.2,40.1,29.76,North,0,0.0,0.0,89,0.00,RA,,0.06,60.0,WeatherDisplay:WD co,2013-05-23 07:20:00,
2013-05-23 09:30:00,43.2,40.2,29.76,North,0,0.0,0.0,89,0.00,09:30,,0.06,65.0,WeatherDisplay:WD co,2013-05-23 07:30:00,
2013-05-23 09:35:00,43.3,40.3,29.76,North,0,0.0,0.0,89,0.00,09:35,,0.06,109.0,WeatherDisplay:WD co,2013-05-23 07:35:00,
2013-05-23 09:40:00,43.5,40.2,29.76,North,0,0.0,0.0,88,0.00,09:40,,0.06,227.0,WeatherDisplay:WD co,2013-05-23 07:40:00,
2013-05-23 09:45:00,43.7,40.1,29.76,North,0,0.0,0.0,87,0.00,09:45,,0.06,218.0,WeatherDisplay:WD co,2013-05-23 07:45:00,
2013-05-23 09:50:00,44.1,40.1,29.76,North,0,0.0,0.0,86,0.00,09:50,,0.06,269.0,WeatherDisplay:WD co,2013-05-23 07:50:00,
2013-05-23 09:55:00,44.5,40.5,29.76,North,0,0.0,0.0,86,0.00,09:55,,0.06,171.0,WeatherDisplay:WD co,2013-05-23 07:55:00,
2013-05-23 10:05:00,44.5,40.6,29.76,North,0,0.0,0.0,86,0.00,10:05,,0.06,174.0,WeatherDisplay:WD co,2013-05-23 08:05:00,
2013-05-23 10:10:00,44.5,40.6,29.76,North,0,0.0,0.0,86,0.00,10:10,,0.06,163.0,WeatherDisplay:WD co,2013-05-23 08:10:00,
2013-05-23 10:15:00,44.6,40.7,29.76,North,0,0.0,0.0,86,0.00,10:15,,0.06,253.0,WeatherDisplay:WD co,2013-05-23 08:15:00,
2013-05-23 10:20:00,44.9,41.0,29.76,North,0,0.0,0.0,86,0.00,10:20,,0.06,160.0,WeatherDisplay:WD co,2013-05-23 08:20:00,
2013-05-23 10:25:00,45.0,40.8,29.76,North,0,0.0,0.0,85,0.00,10:25,,0.06,171.0,WeatherDisplay:WD co,2013-05-23 08:25:00,
2013-05-23 10:35:00,45.2,41.0,29.76,North,0,0.0,0.0,85,0.00,10:35,,0.06,178.0,WeatherDisplay:WD co,2013-05-23 08:35:00,
2013-05-23 10:40:00,45.1,40.9,29.76,North,0,0.0,0.0,85,0.00,10:40,,0.06,141.0,WeatherDisplay:WD co,2013-05-23 08:40:00,
2013-05-23 10:45:00,45.1,40.6,29.76,North,0,0.0,0.0,84,0.00,10:45,,0.06,134.0,WeatherDisplay:WD co,2013-05-23 08:45:00,
2013-05-23 10:50:00,44.9,40.4,29.76,North,0,0.0,0.0,84,0.00,10:50,,0.06,190.0,WeatherDisplay:WD co,2013-05-23 08:50:00,
2013-05-23 10:55:00,44.9,40.4,29.76,North,0,0.0,0.0,84,0.01,RA,,0.07,279.0,WeatherDisplay:WD co,2013-05-23 08:55:00,
2013-05-23 11:00:00,45.1,40.3,29.76,North,0,0.0,0.0,83,0.01,RA,,0.07,190.0,WeatherDisplay:WD co,2013-05-23 09:00:00,
2013-05-23 11:05:00,45.4,40.8,29.76,North,0,0.0,0.0,84,0.00,RA,,0.07,308.0,WeatherDisplay:WD co,2013-05-23 09:05:00,
2013-05-23 11:10:00,45.5,40.9,29.76,North,0,0.0,0.0,84,0.00,RA,,0.07,236.0,WeatherDisplay:WD co,2013-05-23 09:10:00,
2013-05-23 11:15:00,45.4,40.5,29.76,North,0,0.0,0.0,83,0.00,RA,,0.07,914.0,WeatherDisplay:WD co,2013-05-23 09:15:00,
2013-05-23 11:20:00,45.8,41.3,29.76,North,0,0.0,0.0,84,0.00,RA,,0.07,327.0,WeatherDisplay:WD co,2013-05-23 09:20:00,
2013-05-23 11:25:00,46.1,41.2,29.75,North,0,0.0,0.0,83,0.00,RA,,0.07,313.0,WeatherDisplay:WD co,2013-05-23 09:25:00,
2013-05-23 11:30:00,46.2,41.0,29.76,NNW,340,0.0,0.0,82,0.00,RA,,0.07,258.0,WeatherDisplay:WD co,2013-05-23 09:30:00,
2013-05-23 11:40:00,45.9,40.4,29.76,NW,317,0.0,0.0,81,0.00,RA,,0.07,647.0,WeatherDisplay:WD co,2013-05-23 09:40:00,
2013-05-23 11:45:00,46.1,40.9,29.76,NW,323,0.0,0.0,82,0.00,RA,,0.07,195.0,WeatherDisplay:WD co,2013-05-23 09:45:00,
2013-05-23 11:50:00,46.0,40.8,29.76,NW,321,0.0,0.0,82,0.00,RA,,0.07,185.0,WeatherDisplay:WD co,2013-05-23 09:50:00,
2013-05-23 11:55:00,45.6,40.7,29.76,NW,318,0.0,0.0,83,0.00,11:55,,0.07,237.0,WeatherDisplay:WD co,2013-05-23 09:55:00,
2013-05-23 12:00:00,45.2,40.0,29.76,NNW,331,0.0,0.0,82,0.00,12:00,,0.07,396.0,WeatherDisplay:WD co,2013-05-23 10:00:00,
2013-05-23 12:05:00,45.1,39.9,29.76,NNW,337,0.0,0.0,82,0.00,12:05,,0.07,454.0,WeatherDisplay:WD co,2013-05-23 10:05:00,
2013-05-23 12:10:00,45.2,40.4,29.76,NNW,333,0.0,0.0,83,0.00,12:10,,0.07,373.0,WeatherDisplay:WD co,2013-05-23 10:10:00,
2013-05-23 12:15:00,45.4,40.5,29.76,NW,318,0.0,0.0,83,0.00,12:15,,0.07,339.0,WeatherDisplay:WD co,2013-05-23 10:15:00,
2013-05-23 12:20:00,45.5,40.6,29.76,NW,312,0.0,0.0,83,0.00,12:20,,0.07,564.0,WeatherDisplay:WD co,2013-05-23 10:20:00,
2013-05-23 12:30:00,46.4,40.5,29.76,NW,317,0.0,0.0,80,0.00,12:30,,0.07,376.0,WeatherDisplay:WD co,2013-05-23 10:30:00,
2013-05-23 12:35:00,46.6,40.2,29.76,NW,318,0.0,0.0,78,0.00,12:35,,0.07,1123.0,WeatherDisplay:WD co,2013-05-23 10:35:00,
2013-05-23 12:40:00,46.9,40.1,29.76,NW,315,0.0,0.0,77,0.00,12:40,,0.07,522.0,WeatherDisplay:WD co,2013-05-23 10:40:00,
2013-05-23 12:45:00,47.1,39.6,29.76,NW,318,0.0,0.0,75,0.00,12:45,,0.07,784.0,WeatherDisplay:WD co,2013-05-23 10:45:00,
2013-05-23 12:50:00,47.3,39.8,29.76,NW,318,0.0,0.0,75,0.00,12:50,,0.07,608.0,WeatherDisplay:WD co,2013-05-23 10:50:00,
2013-05-23 12:55:00,47.3,39.8,29.76,NW,315,0.0,0.0,75,0.00,12:55,,0.07,322.0,WeatherDisplay:WD co,2013-05-23 10:55:00,
2013-05-23 13:00:00,47.5,40.3,29.76,NW,321,0.0,0.0,76,0.00,13:00,,0.07,336.0,WeatherDisplay:WD co,2013-05-23 11:00:00,
2013-05-23 13:05:00,47.6,40.1,29.76,NW,320,0.0,0.0,75,0.00,13:05,,0.07,434.0,WeatherDisplay:WD co,2013-05-23 11:05:00,
2013-05-23 13:10:00,47.9,41.1,29.76,NW,317,0.0,0.0,77,0.00,13:10,,0.07,1250.0,WeatherDisplay:WD co,2013-05-23 11:10:00,
2013-05-23 13:15:00,48.3,40.4,29.76,NW,314,0.0,0.0,74,0.00,13:15,,0.07,429.0,WeatherDisplay:WD co,2013-05-23 11:15:00,
2013-05-23 13:20:00,47.9,39.3,29.76,NW,311,0.0,0.0,72,0.00,13:20,,0.07,455.0,WeatherDisplay:WD co,2013-05-23 11:20:00,
2013-05-23 13:25:00,47.6,39.4,29.76,NW,314,0.0,0.0,73,0.00,13:25,,0.07,508.0,WeatherDisplay:WD co,2013-05-23 11:25:00,
2013-05-23 13:30:00,47.6,40.1,29.76,NW,317,0.0,0.0,75,0.00,13:30,,0.07,427.0,WeatherDisplay:WD co,2013-05-23 11:30:00,
2013-05-23 13:35:00,47.6,40.1,29.76,NW,315,0.0,0.0,75,0.00,13:35,,0.07,480.0,WeatherDisplay:WD co,2013-05-23 11:35:00,
2013-05-23 13:40:00,47.6,39.7,29.76,NW,315,0.0,0.0,74,0.00,13:40,,0.07,722.0,WeatherDisplay:WD co,2013-05-23 11:40:00,
2013-05-23 13:50:00,48.1,39.8,29.76,NW,322,0.0,0.0,73,0.00,13:50,,0.07,680.0,WeatherDisplay:WD co,2013-05-23 11:50:00,
2013-05-23 13:55:00,48.1,38.8,29.76,NW,316,0.0,0.0,70,0.00,13:55,,0.07,399.0,WeatherDisplay:WD co,2013-05-23 11:55:00,
2013-05-23 14:00:00,48.0,38.7,29.76,NW,314,0.0,0.0,70,0.00,14:00,,0.07,624.0,WeatherDisplay:WD co,2013-05-23 12:00:00,
2013-05-23 14:05:00,48.1,39.2,29.76,NW,312,0.0,0.0,71,0.00,14:05,,0.07,411.0,WeatherDisplay:WD co,2013-05-23 12:05:00,
2013-05-23 14:10:00,48.1,38.4,29.76,NW,314,0.0,0.0,69,0.00,14:10,,0.07,895.0,WeatherDisplay:WD co,2013-05-23 12:10:00,
2013-05-23 14:15:00,48.5,38.1,29.76,NW,318,0.0,0.0,67,0.00,14:15,,0.07,1215.0,WeatherDisplay:WD co,2013-05-23 12:15:00,
2013-05-23 14:20:00,48.9,38.4,29.76,NW,318,0.0,0.0,67,0.00,14:20,,0.07,1127.0,WeatherDisplay:WD co,2013-05-23 12:20:00,
2013-05-23 14:25:00,49.0,38.5,29.76,NW,318,0.0,0.0,67,0.00,14:25,,0.07,350.0,WeatherDisplay:WD co,2013-05-23 12:25:00,
2013-05-23 14:35:00,49.7,39.6,29.76,NW,319,0.0,0.0,68,0.00,14:35,,0.07,1125.0,WeatherDisplay:WD co,2013-05-23 12:35:00,
2013-05-23 14:40:00,50.0,39.5,29.76,NW,320,0.0,0.0,67,0.00,14:40,,0.07,962.0,WeatherDisplay:WD co,2013-05-23 12:40:00,
2013-05-23 14:45:00,50.3,39.8,29.76,NW,320,0.0,0.0,67,0.00,14:45,,0.07,844.0,WeatherDisplay:WD co,2013-05-23 12:45:00,
2013-05-23 14:50:00,50.0,40.2,29.76,NW,318,0.0,0.0,69,0.00,14:50,,0.07,295.0,WeatherDisplay:WD co,2013-05-23 12:50:00,
2013-05-23 14:55:00,49.2,39.1,29.76,NW,315,0.0,0.0,68,0.00,14:55,,0.07,243.0,WeatherDisplay:WD co,2013-05-23 12:55:00,
2013-05-23 15:00:00,48.3,39.0,29.76,NW,318,0.0,0.0,70,0.00,15:00,,0.07,227.0,WeatherDisplay:WD co,2013-05-23 13:00:00,
2013-05-23 15:05:00,47.8,38.8,29.76,NW,319,0.0,0.0,71,0.00,15:05,,0.07,276.0,WeatherDisplay:WD co,2013-05-23 13:05:00,
2013-05-23 15:10:00,48.0,39.4,29.76,NW,320,0.0,0.0,72,0.00,15:10,,0.07,1116.0,WeatherDisplay:WD co,2013-05-23 13:10:00,
2013-05-23 15:15:00,48.5,38.8,29.76,NW,317,0.0,0.0,69,0.00,15:15,,0.07,338.0,WeatherDisplay:WD co,2013-05-23 13:15:00,
2013-05-23 15:20:00,48.8,37.6,29.76,NW,319,0.0,0.0,65,0.00,15:20,,0.07,527.0,WeatherDisplay:WD co,2013-05-23 13:20:00,
2013-05-23 15:25:00,49.1,37.8,29.77,NW,315,0.0,0.0,65,0.00,15:25,,0.07,318.0,WeatherDisplay:WD co,2013-05-23 13:25:00,
2013-05-23 15:30:00,49.2,38.7,29.77,NW,310,0.0,0.0,67,0.00,15:30,,0.07,893.0,WeatherDisplay:WD co,2013-05-23 13:30:00,
2013-05-23 15:35:00,49.2,37.9,29.77,NW,312,0.0,0.0,65,0.00,15:35,,0.07,162.0,WeatherDisplay:WD co,2013-05-23 13:35:00,
2013-05-23 15:40:00,48.4,37.2,29.77,NW,316,0.0,0.0,65,0.00,15:40,,0.07,223.0,WeatherDisplay:WD co,2013-05-23 13:40:00,
2013-05-23 15:45:00,47.9,36.3,29.77,NW,324,0.0,0.0,64,0.00,15:45,,0.07,302.0,WeatherDisplay:WD co,2013-05-23 13:45:00,
2013-05-23 15:50:00,47.7,36.5,29.77,NNW,328,0.0,0.0,65,0.00,15:50,,0.07,278.0,WeatherDisplay:WD co,2013-05-23 13:50:00,
2013-05-23 15:55:00,47.8,38.5,29.77,NW,323,0.0,0.0,70,0.00,15:55,,0.07,160.0,WeatherDisplay:WD co,2013-05-23 13:55:00,
2013-05-23 16:00:00,47.8,38.8,29.77,NW,321,0.0,0.0,71,0.00,16:00,,0.07,339.0,WeatherDisplay:WD co,2013-05-23 14:00:00,
2013-05-23 16:05:00,47.7,39.1,29.77,NW,315,0.0,0.0,72,0.00,16:05,,0.07,264.0,WeatherDisplay:WD co,2013-05-23 14:05:00,
2013-05-23 16:10:00,47.7,38.7,29.77,NW,312,0.0,0.0,71,0.00,16:10,,0.07,241.0,WeatherDisplay:WD co,2013-05-23 14:10:00,
2013-05-23 16:15:00,47.6,38.3,29.77,NW,310,0.0,0.0,70,0.00,16:15,,0.07,554.0,WeatherDisplay:WD co,2013-05-23 14:15:00,
2013-05-23 16:20:00,47.9,38.6,29.77,WNW,300,0.0,0.0,70,0.00,16:20,,0.07,450.0,WeatherDisplay:WD co,2013-05-23 14:20:00,
2013-05-23 16:25:00,48.1,38.4,29.77,NW,309,0.0,0.0,69,0.00,16:25,,0.07,519.0,WeatherDisplay:WD co,2013-05-23 14:25:00,
2013-05-23 16:30:00,48.2,38.5,29.77,NW,322,0.0,0.0,69,0.00,16:30,,0.07,826.0,WeatherDisplay:WD co,2013-05-23 14:30:00,
2013-05-23 16:35:00,48.4,39.1,29.77,NW,320,0.0,0.0,70,0.00,16:35,,0.07,227.0,WeatherDisplay:WD co,2013-05-23 14:35:00,
2013-05-23 16:40:00,48.6,39.6,29.77,NW,322,0.0,0.0,71,0.00,16:40,,0.07,896.0,WeatherDisplay:WD co,2013-05-23 14:40:00,
2013-05-23 16:45:00,49.0,39.6,29.78,NW,322,0.0,0.0,70,0.00,16:45,,0.07,879.0,WeatherDisplay:WD co,2013-05-23 14:45:00,
2013-05-23 16:50:00,49.2,39.1,29.78,NW,318,0.0,0.0,68,0.00,16:50,,0.07,849.0,WeatherDisplay:WD co,2013-05-23 14:50:00,
2013-05-23 16:55:00,49.1,38.6,29.78,NW,317,0.0,0.0,67,0.00,16:55,,0.07,179.0,WeatherDisplay:WD co,2013-05-23 14:55:00,
2013-05-23 17:00:00,48.9,38.1,29.78,NW,317,0.0,0.0,66,0.00,17:00,,0.07,149.0,WeatherDisplay:WD co,2013-05-23 15:00:00,
2013-05-23 17:05:00,48.8,37.9,29.77,NW,319,0.0,0.0,66,0.00,17:05,,0.07,148.0,WeatherDisplay:WD co,2013-05-23 15:05:00,
2013-05-23 17:10:00,48.3,37.5,29.78,NW,319,0.0,0.0,66,0.00,17:10,,0.07,183.0,WeatherDisplay:WD co,2013-05-23 15:10:00,
2013-05-23 17:15:00,48.1,38.0,29.78,NW,325,0.0,0.0,68,0.00,17:15,,0.07,292.0,WeatherDisplay:WD co,2013-05-23 15:15:00,
2013-05-23 17:20:00,48.0,38.7,29.78,NW,318,0.0,0.0,70,0.00,17:20,,0.07,176.0,WeatherDisplay:WD co,2013-05-23 15:20:00,
2013-05-23 17:25:00,47.9,38.6,29.78,NW,307,0.0,0.0,70,0.00,17:25,,0.07,172.0,WeatherDisplay:WD co,2013-05-23 15:25:00,
2013-05-23 17:30:00,48.2,38.9,29.78,NW,313,0.0,0.0,70,0.00,17:30,,0.07,139.0,WeatherDisplay:WD co,2013-05-23 15:30:00,
2013-05-23 17:35:00,48.0,38.3,29.77,NW,321,0.0,0.0,69,0.00,17:35,,0.07,123.0,WeatherDisplay:WD co,2013-05-23 15:35:00,
2013-05-23 17:40:00,47.8,38.8,29.78,NW,318,0.0,0.0,71,0.00,17:40,,0.07,148.0,WeatherDisplay:WD co,2013-05-23 15:40:00,
2013-05-23 17:50:00,47.7,39.1,29.78,NW,325,0.0,0.0,72,0.00,17:50,,0.07,267.0,WeatherDisplay:WD co,2013-05-23 15:50:00,
2013-05-23 17:55:00,47.8,39.2,29.78,NW,323,0.0,0.0,72,0.00,17:55,,0.07,172.0,WeatherDisplay:WD co,2013-05-23 15:55:00,
2013-05-23 18:00:00,47.6,38.7,29.78,NW,316,0.0,0.0,71,0.00,18:00,,0.07,97.0,WeatherDisplay:WD co,2013-05-23 16:00:00,
2013-05-23 18:05:00,47.6,37.2,29.78,NW,311,0.0,0.0,67,0.00,18:05,,0.07,128.0,WeatherDisplay:WD co,2013-05-23 16:05:00,
2013-05-23 18:10:00,47.3,37.3,29.78,NW,305,0.0,0.0,68,0.00,18:10,,0.07,100.0,WeatherDisplay:WD co,2013-05-23 16:10:00,
2013-05-23 18:15:00,47.1,37.8,29.78,NW,304,0.0,0.0,70,0.00,18:15,,0.07,127.0,WeatherDisplay:WD co,2013-05-23 16:15:00,
2013-05-23 18:25:00,47.5,38.9,29.79,NW,307,0.0,0.0,72,0.00,18:25,,0.07,580.0,WeatherDisplay:WD co,2013-05-23 16:25:00,
2013-05-23 18:30:00,47.9,38.9,29.79,WNW,302,0.0,0.0,71,0.00,18:30,,0.07,153.0,WeatherDisplay:WD co,2013-05-23 16:30:00,
2013-05-23 18:35:00,47.9,38.2,29.78,WNW,297,0.0,0.0,69,0.00,18:35,,0.07,155.0,WeatherDisplay:WD co,2013-05-23 16:35:00,
2013-05-23 18:40:00,47.6,38.6,29.78,NW,306,0.0,0.0,71,0.00,18:40,,0.07,123.0,WeatherDisplay:WD co,2013-05-23 16:40:00,
2013-05-23 18:45:00,47.3,38.4,29.79,NW,311,0.0,0.0,71,0.00,18:45,,0.07,151.0,WeatherDisplay:WD co,2013-05-23 16:45:00,
2013-05-23 18:50:00,47.0,38.4,29.79,NW,309,0.0,0.0,72,0.00,18:50,,0.07,132.0,WeatherDisplay:WD co,2013-05-23 16:50:00,
2013-05-23 18:55:00,46.9,38.7,29.79,NW,307,0.0,0.0,73,0.00,18:55,,0.07,508.0,WeatherDisplay:WD co,2013-05-23 16:55:00,
2013-05-23 19:00:00,47.1,38.5,29.78,NW,317,0.0,0.0,72,0.00,19:00,,0.07,496.0,WeatherDisplay:WD co,2013-05-23 17:00:00,
2013-05-23 19:05:00,47.4,38.1,29.78,NW,322,0.0,0.0,70,0.00,19:05,,0.07,84.0,WeatherDisplay:WD co,2013-05-23 17:05:00,
2013-05-23 19:10:00,47.4,38.1,29.78,NW,321,0.0,0.0,70,0.00,19:10,,0.07,148.0,WeatherDisplay:WD co,2013-05-23 17:10:00,
2013-05-23 19:15:00,47.2,38.3,29.78,NW,319,0.0,0.0,71,0.00,19:15,,0.07,98.0,WeatherDisplay:WD co,2013-05-23 17:15:00,
2013-05-23 19:20:00,47.2,38.6,29.78,NW,326,0.0,0.0,72,0.00,19:20,,0.07,146.0,WeatherDisplay:WD co,2013-05-23 17:20:00,
2013-05-23 19:25:00,47.0,38.8,29.78,NW,321,0.0,0.0,73,0.00,19:25,,0.07,109.0,WeatherDisplay:WD co,2013-05-23 17:25:00,
2013-05-23 19:30:00,47.0,39.5,29.78,NW,313,0.0,0.0,75,0.00,19:30,,0.07,84.0,WeatherDisplay:WD co,2013-05-23 17:30:00,
2013-05-23 19:35:00,46.8,38.9,29.78,WNW,302,0.0,0.0,74,0.00,19:35,,0.07,130.0,WeatherDisplay:WD co,2013-05-23 17:35:00,
2013-05-23 19:40:00,46.7,39.2,29.78,WNW,303,0.0,0.0,75,0.00,19:40,,0.07,104.0,WeatherDisplay:WD co,2013-05-23 17:40:00,
2013-05-23 19:50:00,46.6,38.4,29.78,NW,311,0.0,0.0,73,0.00,19:50,,0.07,88.0,WeatherDisplay:WD co,2013-05-23 17:50:00,
2013-05-23 19:55:00,46.5,38.7,29.78,NW,312,0.0,0.0,74,0.00,19:55,,0.07,72.0,WeatherDisplay:WD co,2013-05-23 17:55:00,
2013-05-23 20:00:00,46.3,38.5,29.78,NW,312,0.0,0.0,74,0.00,20:00,,0.07,91.0,WeatherDisplay:WD co,2013-05-23 18:00:00,
2013-05-23 20:05:00,46.3,38.8,29.78,NW,318,0.0,0.0,75,0.00,20:05,,0.07,232.0,WeatherDisplay:WD co,2013-05-23 18:05:00,
2013-05-23 20:10:00,46.3,38.2,29.78,NW,316,0.0,0.0,73,0.00,20:10,,0.07,88.0,WeatherDisplay:WD co,2013-05-23 18:10:00,
2013-05-23 20:15:00,46.4,38.2,29.78,NW,305,0.0,0.0,73,0.00,20:15,,0.07,51.0,WeatherDisplay:WD co,2013-05-23 18:15:00,
2013-05-23 20:20:00,46.3,38.1,29.78,NW,310,0.0,0.0,73,0.00,20:20,,0.07,33.0,WeatherDisplay:WD co,2013-05-23 18:20:00,
2013-05-23 20:25:00,46.1,37.9,29.78,NW,311,0.0,0.0,73,0.00,20:25,,0.07,47.0,WeatherDisplay:WD co,2013-05-23 18:25:00,
2013-05-23 20:30:00,45.9,37.7,29.78,NW,307,0.0,0.0,73,0.00,20:30,,0.07,35.0,WeatherDisplay:WD co,2013-05-23 18:30:00,
2013-05-23 20:35:00,45.8,38.0,29.78,NW,312,0.0,0.0,74,0.00,20:35,,0.07,28.0,WeatherDisplay:WD co,2013-05-23 18:35:00,
2013-05-23 20:40:00,45.9,38.4,29.79,NW,314,0.0,0.0,75,0.00,20:40,,0.07,81.0,WeatherDisplay:WD co,2013-05-23 18:40:00,
2013-05-23 20:45:00,46.0,38.5,29.78,NW,309,0.0,0.0,75,0.00,20:45,,0.07,28.0,WeatherDisplay:WD co,2013-05-23 18:45:00,
2013-05-23 20:50:00,46.0,38.5,29.78,NW,308,0.0,0.0,75,0.00,20:50,,0.07,25.0,WeatherDisplay:WD co,2013-05-23 18:50:00,
2013-05-23 20:55:00,45.9,38.4,29.79,NW,312,0.0,0.0,75,0.00,20:55,,0.07,18.0,WeatherDisplay:WD co,2013-05-23 18:55:00,
2013-05-23 21:00:00,45.8,38.7,29.79,NW,309,0.0,0.0,76,0.00,21:00,,0.07,14.0,WeatherDisplay:WD co,2013-05-23 19:00:00,
2013-05-23 21:05:00,45.8,38.7,29.79,NW,304,0.0,0.0,76,0.00,21:05,,0.07,11.0,WeatherDisplay:WD co,2013-05-23 19:05:00,
2013-05-23 21:10:00,45.8,39.0,29.79,WNW,302,0.0,0.0,77,0.00,21:10,,0.07,9.0,WeatherDisplay:WD co,2013-05-23 19:10:00,
2013-05-23 21:15:00,45.8,38.7,29.79,NW,318,0.0,0.0,76,0.00,21:15,,0.07,9.0,WeatherDisplay:WD co,2013-05-23 19:15:00,
2013-05-23 21:20:00,45.7,38.5,29.79,North,349,0.0,0.0,76,0.00,21:20,,0.07,5.0,WeatherDisplay:WD co,2013-05-23 19:20:00,
2013-05-23 21:25:00,45.5,38.4,29.79,North,0,0.0,0.0,76,0.00,21:25,,0.07,0.0,WeatherDisplay:WD co,2013-05-23 19:25:00,
2013-05-23 21:30:00,45.4,38.6,29.79,North,0,0.0,0.0,77,0.00,21:30,,0.07,0.0,WeatherDisplay:WD co,2013-05-23 19:30:00,
2013-05-23 21:35:00,45.3,38.8,29.80,North,0,0.0,0.0,78,0.00,21:35,,0.07,0.0,WeatherDisplay:WD co,2013-05-23 19:35:00,
2013-05-23 21:40:00,45.2,38.7,29.80,North,0,0.0,0.0,78,0.00,21:40,,0.07,0.0,WeatherDisplay:WD co,2013-05-23 19:40:00,
2013-05-23 21:45:00,45.1,38.6,29.80,North,0,0.0,0.0,78,0.00,21:45,,0.07,0.0,WeatherDisplay:WD co,2013-05-23 19:45:00,
2013-05-23 21:50:00,45.0,38.8,29.80,North,0,0.0,0.0,79,0.00,21:50,,0.07,0.0,WeatherDisplay:WD co,2013-05-23 19:50:00,
2013-05-23 21:55:00,44.9,38.7,29.80,North,0,0.0,0.0,79,0.00,21:55,,0.07,0.0,WeatherDisplay:WD co,2013-05-23 19:55:00,
2013-05-23 22:00:00,44.7,38.6,29.80,North,0,0.0,0.0,79,0.00,22:00,,0.07,0.0,WeatherDisplay:WD co,2013-05-23 20:00:00,
2013-05-23 22:10:00,44.3,38.5,29.80,North,0,0.0,0.0,80,0.00,22:10,,0.07,0.0,WeatherDisplay:WD co,2013-05-23 20:10:00,
2013-05-23 22:15:00,44.1,38.7,29.80,North,0,0.0,0.0,81,0.00,22:15,,0.07,0.0,WeatherDisplay:WD co,2013-05-23 20:15:00,
2013-05-23 22:20:00,44.0,38.5,29.80,North,0,0.0,0.0,81,0.00,22:20,,0.07,0.0,WeatherDisplay:WD co,2013-05-23 20:20:00,
2013-05-23 22:25:00,43.8,38.4,29.80,North,0,0.0,0.0,81,0.00,22:25,,0.07,0.0,WeatherDisplay:WD co,2013-05-23 20:25:00,
2013-05-23 22:30:00,43.8,38.6,29.80,North,0,0.0,0.0,82,0.00,22:30,,0.07,0.0,WeatherDisplay:WD co,2013-05-23 20:30:00,
2013-05-23 22:35:00,43.7,38.9,29.80,North,0,0.0,0.0,83,0.00,22:35,,0.07,0.0,WeatherDisplay:WD co,2013-05-23 20:35:00,
2013-05-23 22:40:00,43.6,38.8,29.81,North,0,0.0,0.0,83,0.00,22:40,,0.07,0.0,WeatherDisplay:WD co,2013-05-23 20:40:00,
2013-05-23 22:50:00,43.6,39.1,29.81,North,0,0.0,0.0,84,0.00,22:50,,0.07,0.0,WeatherDisplay:WD co,2013-05-23 20:50:00,
2013-05-23 22:55:00,43.5,39.3,29.81,North,0,0.0,0.0,85,0.00,22:55,,0.07,0.0,WeatherDisplay:WD co,2013-05-23 20:55:00,
2013-05-23 23:00:00,43.4,39.2,29.80,North,0,0.0,0.0,85,0.00,23:00,,0.07,0.0,WeatherDisplay:WD co,2013-05-23 21:00:00,
2013-05-23 23:10:00,43.3,39.1,29.80,North,0,0.0,0.0,85,0.00,23:10,,0.07,0.0,WeatherDisplay:WD co,2013-05-23 21:10:00,
2013-05-23 23:15:00,43.2,39.0,29.80,North,0,0.0,0.0,85,0.00,23:15,,0.07,0.0,WeatherDisplay:WD co,2013-05-23 21:15:00,
2013-05-23 23:20:00,43.1,38.9,29.80,North,0,0.0,0.0,85,0.00,23:20,,0.07,0.0,WeatherDisplay:WD co,2013-05-23 21:20:00,
2013-05-23 23:25:00,42.9,38.7,29.80,North,0,0.0,0.0,85,0.00,23:25,,0.07,0.0,WeatherDisplay:WD co,2013-05-23 21:25:00,
2013-05-23 23:30:00,42.8,38.6,29.80,North,0,0.0,0.0,85,0.00,23:30,,0.07,0.0,WeatherDisplay:WD co,2013-05-23 21:30:00,
2013-05-23 23:35:00,42.8,38.9,29.80,North,0,0.0,0.0,86,0.00,23:35,,0.07,0.0,WeatherDisplay:WD co,2013-05-23 21:35:00,
2013-05-23 23:40:00,42.8,38.9,29.81,North,0,0.0,0.0,86,0.00,23:40,,0.07,0.0,WeatherDisplay:WD co,2013-05-23 21:40:00,
2013-05-23 23:45:00,42.8,39.2,29.81,North,0,0.0,0.0,87,0.00,23:45,,0.07,0.0,WeatherDisplay:WD co,2013-05-23 21:45:00,
2013-05-23 23:50:00,42.8,39.2,29.81,North,0,0.0,0.0,87,0.00,23:50,,0.07,0.0,WeatherDisplay:WD co,2013-05-23 21:50:00,
2013-05-23 23:55:00,42.8,39.2,29.81,North,0,0.0,0.0,87,0.00,23:55,,0.07,0.0,WeatherDisplay:WD co,2013-05-23 21:55:00,